• Join FlightAware (Why Join?)
  • Login
  • US Flag 
05:26PM EDT


 

Airport Tracker/Info


-or-


 

Live Flight TrackerFlight Track Log ✈ ASH3770 ✈ 12-May-2013 ✈ KPIT - KORD

Flight Track Log - Related Links

Times and Time Zones

All times are in EDT time to prevent confusion due to time zone crossing. See the ASH3770 flight status page for this flight to view local times or setup timezone preferences in your user account.

Time Position Orientation Groundspeed Altitude Reporting Facility
EDT Latitude Longitude Course Direction KTS MPH feet Rate Location/Type
06:38PM 40.5153 -80.3619 283° West 175 201 5,200  Level Cleveland Center
06:39PM 40.5319 -80.4464 285° West 214 246 8,500 2,760 Climbing Cleveland Center
06:40PM 40.5525 -80.5790 285° West  Level FlightAware Approximate
06:40PM 40.5528 -80.5339 287° West 238 274 10,800  Level Cleveland Center
06:41PM 40.5766 -80.6996 285° West  Level FlightAware Approximate
06:41PM 40.5736 -80.6322 286° West 261 300 12,100  Level Cleveland Center
06:42PM 40.6074 -80.8174 291° West  Level FlightAware Approximate
06:42PM 40.5967 -80.7361 286° West 282 325 14,500  Level Cleveland Center
06:43PM 40.6342 -80.9370 288° West  Level FlightAware Approximate
06:43PM 40.6192 -80.8483 285° West 304 350 17,100  Level Cleveland Center
06:44PM 40.6439 -80.9581 287° West 309 356 19,300 2,280 Climbing Cleveland Center
06:45PM 40.6664 -81.0839 283° West 309 356 21,700 1,980 Climbing Cleveland Center
06:46PM 40.6889 -81.1911 286° West 316 364 23,300 1,440 Climbing Cleveland Center
06:47PM 40.7131 -81.3036 286° West 321 369 24,600 1,140 Climbing Cleveland Center
06:48PM 40.7375 -81.4106 287° West 321 369 25,600 1,200 Climbing Cleveland Center
06:49PM 40.7594 -81.5317 283° West 331 381 27,000 1,200 Climbing Cleveland Center
06:50PM 40.7814 -81.6553 283° West 346 398 28,000 1,080 Climbing Cleveland Center
06:51PM 40.8050 -81.7819 284° West 351 404 29,200 1,080 Climbing Cleveland Center
06:52PM 40.8286 -81.9086 284° West 357 411 30,200 900 Climbing Cleveland Center
06:53PM 40.8519 -82.0517 282° West 357 411 31,100 1,140 Climbing Cleveland Center
06:54PM 40.8772 -82.1814 284° West 357 411 32,500 900 Climbing Cleveland Center
06:55PM 40.9003 -82.3111 283° West 362 417 32,900 660 Climbing Cleveland Center
06:56PM 40.9233 -82.4436 283° West 372 428 33,900 540 Climbing Cleveland Center
06:57PM 40.9481 -82.5844 283° West 377 434 34,000  Climbing Cleveland Center
06:58PM 40.9725 -82.7283 283° West 393 452 34,000  Level Cleveland Center
06:59PM 40.9989 -82.8778 283° West 409 471 34,000  Level Cleveland Center
07:00PM 41.0189 -83.0133 281° West 415 478 34,000  Level Cleveland Center
07:01PM 41.0528 -83.1742 286° West 415 478 34,000  Level Cleveland Center
07:02PM 41.0747 -83.3100 282° West 415 478 34,000  Level Cleveland Center
07:03PM 41.0978 -83.4764 280° West 420 483 34,000  Level Cleveland Center
07:04PM 41.1253 -83.6236 284° West 415 478 34,000  Level Cleveland Center
07:05PM 41.1481 -83.7764 281° West 415 478 34,000  Level Cleveland Center
07:06PM 41.1753 -83.9242 284° West 415 478 34,000  Level Cleveland Center
07:07PM 41.2000 -84.0744 282° West 415 478 34,000  Level Cleveland Center
07:08PM 41.2178 -84.1861 282° West 413 475 34,000  Level Chicago Center
07:09PM 41.2261 -84.3383 274° West 415 478 34,000  Level Chicago Center
07:10PM 41.2300 -84.4906 272° West 413 475 34,000  Level Chicago Center
07:11PM 41.2367 -84.6736 273° West 415 478 34,000  Level Chicago Center
07:12PM 41.2433 -84.8261 273° West 413 475 34,000 -780 Level Chicago Center
07:14PM 41.2619 -84.9744 280° West 409 471 32,500 -1,500 Descending Chicago Center
07:15PM 41.2839 -85.1228 281° West 405 466 31,000 -1,500 Descending Chicago Center
07:16PM 41.3058 -85.2719 281° West 409 471 29,500 -1,380 Descending Chicago Center
07:17PM 41.3275 -85.4192 281° West 405 466 28,200 -1,320 Descending Chicago Center
07:18PM 41.3486 -85.5636 281° West 398 458 26,800 -1,320 Descending Chicago Center
07:19PM 41.3697 -85.7061 281° West 390 449 25,500 -900 Descending Chicago Center
07:20PM 41.3939 -85.8747 281° West 386 444 25,000 -300 Descending Chicago Center
07:21PM 41.4142 -86.0192 281° West 393 452 25,000 -240 Level Chicago Center
07:22PM 41.4339 -86.1628 280° West 394 453 24,600 -1,020 Descending Chicago Center
07:23PM 41.4544 -86.3094 281° West 400 460 23,000 -1,740 Descending Chicago Center
07:24PM 41.4744 -86.4500 281° West 385 443 21,100 -2,040 Descending Chicago Center
07:25PM 41.4928 -86.5822 281° West 368 423 18,900 -2,160 Descending Chicago Center
07:26PM 41.5125 -86.7225 281° West 348 400 16,700 -2,160 Descending Chicago Center
07:27PM 41.5292 -86.8450 280° West 339 390 14,500 -2,160 Descending Chicago Center
07:28PM 41.5453 -86.9642 280° West 330 380 12,300 -1,260 Descending Chicago Center
07:29PM 41.5594 -87.0822 279° West 326 375 12,000 -240 Descending Chicago Center
07:29PM 41.5667 -87.1667 277° West 324 373 12,000 -300 Level Chicago TRACON
07:30PM 41.6000 -87.2667 294° West 314 361 11,600 -660 Descending Chicago TRACON
07:31PM 41.6275 -87.3161 307° West 316 364 11,000 -420 Descending Chicago Center
07:32PM 41.6814 -87.4050 309° West 312 359 11,000  Level Chicago Center
07:33PM 41.7364 -87.4950 309° West 315 362 11,000 -60 Level Chicago Center
07:34PM 41.7900 -87.5811 310° West 305 351 10,900 -960 Descending Chicago Center
07:35PM 41.8406 -87.6669 308° West 251 289 9,100 -1,500 Descending Chicago Center
07:35PM 41.8500 -87.7000 291° West 256 295 9,000 -120 Descending Chicago TRACON
07:36PM 41.8667 -87.7833 285° West 257 296 9,000  Level Chicago TRACON
07:37PM 41.8833 -87.8833 283° West 257 296 9,000  Level Chicago TRACON
07:38PM 41.9000 -87.9667 285° West 244 281 9,000 -660 Level Chicago TRACON
07:39PM 41.9167 -88.0500 285° West 215 247 7,700 -1,500 Descending Chicago TRACON
07:40PM 41.9000 -88.1167 251° West 197 227 6,100 -1,440 Descending Chicago TRACON
07:41PM 41.9011 -88.1808 271° West 194 223 5,000 -600 Descending Chicago Center
07:42PM 41.9100 -88.2308 283° West 184 212 5,000 -300 Level Chicago Center
07:43PM 41.9522 -88.2108 19° North 184 212 4,400 -540 Descending Chicago Center
07:44PM 41.9692 -88.1444 71° East 193 222 3,900 -540 Descending Chicago Center